createdAt,value
2019-05-20T00:01:56.872Z,81.62
2019-05-20T00:04:30.034Z,81.57
2019-05-20T00:07:03.971Z,81.65
2019-05-20T00:09:37.993Z,81.62
2019-05-20T00:12:11.225Z,81.68
2019-05-20T00:14:45.446Z,81.71
2019-05-20T00:17:19.432Z,81.63
2019-05-20T00:19:53.503Z,81.73
2019-05-20T00:22:27.021Z,81.79
2019-05-20T00:25:01.012Z,81.83
2019-05-20T00:27:35.125Z,81.87
2019-05-20T00:30:08.389Z,81.89
2019-05-20T00:32:42.682Z,81.80
2019-05-20T00:35:16.761Z,81.78
2019-05-20T00:37:50.949Z,81.62
2019-05-20T00:40:24.999Z,81.62
2019-05-20T00:42:59.036Z,81.59
2019-05-20T00:45:32.252Z,81.44
2019-05-20T00:48:06.454Z,81.63
2019-05-20T00:50:40.515Z,81.70
2019-05-20T00:53:13.734Z,81.68
2019-05-20T00:55:48.135Z,81.66
2019-05-20T00:58:22.244Z,81.66
2019-05-20T01:00:55.721Z,81.61
2019-05-20T01:03:29.880Z,81.62
2019-05-20T01:06:03.876Z,81.63
2019-05-20T01:08:37.943Z,81.59
2019-05-20T01:11:11.282Z,81.59
2019-05-20T01:13:45.387Z,81.61
2019-05-20T01:16:18.777Z,81.88
2019-05-20T01:18:52.759Z,81.91
2019-05-20T01:21:25.767Z,81.90
2019-05-20T01:23:59.680Z,81.87
2019-05-20T01:26:34.053Z,81.86
2019-05-20T01:29:08.125Z,81.82
2019-05-20T01:31:41.528Z,81.78
2019-05-20T01:34:17.017Z,81.76
2019-05-20T01:36:50.354Z,81.77
2019-05-20T01:39:24.407Z,81.75
2019-05-20T01:41:57.658Z,81.76
2019-05-20T01:44:31.481Z,81.71
2019-05-20T01:47:05.576Z,81.70
2019-05-20T01:49:39.595Z,81.63
2019-05-20T01:52:12.967Z,81.70
2019-05-20T01:54:46.931Z,81.72
2019-05-20T01:57:20.290Z,81.72
2019-05-20T01:59:54.455Z,81.72
2019-05-20T02:02:28.605Z,81.74
2019-05-20T02:05:01.828Z,81.73
2019-05-20T02:07:35.909Z,81.77
2019-05-20T02:10:10.287Z,81.74
2019-05-20T02:12:44.496Z,81.72
2019-05-20T02:15:28.709Z,81.76
2019-05-20T02:18:03.068Z,81.75
2019-05-20T02:20:37.017Z,81.78
2019-05-20T02:23:15.578Z,81.76
2019-05-20T02:25:50.900Z,81.78
2019-05-20T02:28:24.728Z,81.78
2019-05-20T02:30:58.565Z,81.77
2019-05-20T02:33:49.939Z,81.76
2019-05-20T02:36:08.163Z,81.81
2019-05-20T02:38:42.092Z,81.83
2019-05-20T02:41:15.965Z,81.83
2019-05-20T02:43:49.893Z,81.82
2019-05-20T02:46:23.781Z,81.74
2019-05-20T02:48:57.759Z,81.81
2019-05-20T02:51:31.786Z,81.79
2019-05-20T02:54:04.937Z,81.85
2019-05-20T02:56:38.856Z,81.79
2019-05-20T02:59:12.930Z,81.75
2019-05-20T03:01:45.946Z,81.73
2019-05-20T03:04:19.852Z,81.76
2019-05-20T03:06:53.868Z,81.86
2019-05-20T03:09:27.966Z,81.91
2019-05-20T03:12:01.295Z,81.99
2019-05-20T03:14:35.517Z,82.03
2019-05-20T03:17:09.613Z,82.05
2019-05-20T03:19:42.951Z,82.01
2019-05-20T03:22:17.012Z,81.92
2019-05-20T03:24:50.069Z,81.98
2019-05-20T03:27:24.154Z,81.97
2019-05-20T03:29:57.608Z,81.98
2019-05-20T03:32:31.645Z,81.95
2019-05-20T03:35:06.708Z,81.95
2019-05-20T03:37:40.805Z,81.91
2019-05-20T03:40:14.133Z,81.92
2019-05-20T03:42:48.287Z,81.89
2019-05-20T03:45:21.516Z,81.90
2019-05-20T03:47:55.502Z,81.88
2019-05-20T03:50:28.807Z,81.89
2019-05-20T03:53:02.800Z,81.84
2019-05-20T03:55:36.084Z,81.85
2019-05-20T03:58:13.270Z,81.85
2019-05-20T04:00:48.220Z,81.87
2019-05-20T04:03:22.377Z,81.84
2019-05-20T04:05:56.345Z,81.82
2019-05-20T04:08:30.513Z,81.80
2019-05-20T04:11:04.873Z,81.79
2019-05-20T04:13:38.949Z,81.84
2019-05-20T04:16:12.088Z,81.87
2019-05-20T04:18:46.162Z,81.93
2019-05-20T04:21:19.413Z,81.99
2019-05-20T04:23:53.296Z,82.03
2019-05-20T04:26:27.203Z,82.09
2019-05-20T04:29:01.226Z,82.10
2019-05-20T04:31:34.274Z,82.12
2019-05-20T04:34:08.201Z,82.03
2019-05-20T04:36:42.000Z,82.16
2019-05-20T04:39:16.014Z,82.10
2019-05-20T04:41:49.041Z,82.20
2019-05-20T04:44:22.891Z,82.20
2019-05-20T04:46:58.012Z,82.27
2019-05-20T04:49:32.151Z,82.26
2019-05-20T04:52:06.130Z,82.27
2019-05-20T04:54:40.069Z,82.29
2019-05-20T04:57:13.923Z,82.27
2019-05-20T04:59:47.926Z,82.27
2019-05-20T05:02:20.968Z,82.35
2019-05-20T05:04:54.907Z,82.35
2019-05-20T05:07:28.713Z,82.39
2019-05-20T05:10:02.683Z,82.11
2019-05-20T05:12:35.897Z,81.94
2019-05-20T05:15:10.500Z,81.74
2019-05-20T05:17:44.538Z,81.61
2019-05-20T05:20:18.724Z,81.40
2019-05-20T05:22:52.918Z,81.31
2019-05-20T05:25:27.129Z,81.29
2019-05-20T05:28:01.063Z,81.17
2019-05-20T05:30:34.784Z,80.97
2019-05-20T05:33:08.955Z,80.72
2019-05-20T05:35:52.978Z,80.76
2019-05-20T05:38:18.623Z,80.45
2019-05-20T05:40:51.746Z,80.43
2019-05-20T05:43:25.583Z,80.28
2019-05-20T05:45:59.516Z,80.04
2019-05-20T05:48:32.993Z,80.29
2019-05-20T05:51:06.922Z,79.93
2019-05-20T05:53:41.012Z,79.95
2019-05-20T05:56:14.927Z,80.19
2019-05-20T05:58:48.179Z,80.25
2019-05-20T06:01:22.547Z,80.20
2019-05-20T06:03:56.423Z,80.55
2019-05-20T06:06:29.629Z,80.20
2019-05-20T06:09:05.194Z,79.58
2019-05-20T06:11:39.140Z,79.77
2019-05-20T06:14:12.317Z,79.82
2019-05-20T06:16:46.257Z,79.88
2019-05-20T06:19:20.156Z,79.53
2019-05-20T06:21:53.352Z,79.05
2019-05-20T06:24:27.326Z,78.40
2019-05-20T06:27:01.276Z,78.89
2019-05-20T06:29:35.189Z,78.89
2019-05-20T06:32:09.105Z,78.37
2019-05-20T06:34:43.191Z,76.82
2019-05-20T06:37:25.027Z,78.00
2019-05-20T06:39:59.055Z,77.78
2019-05-20T06:42:32.950Z,78.59
2019-05-20T06:45:08.448Z,78.43
2019-05-20T06:47:42.280Z,78.26
2019-05-20T06:50:15.456Z,78.02
2019-05-20T06:52:49.242Z,77.57
2019-05-20T06:55:23.113Z,77.36
2019-05-20T06:57:56.990Z,77.19
2019-05-20T07:00:36.906Z,77.23
2019-05-20T07:03:10.827Z,76.84
2019-05-20T07:05:44.746Z,77.41
2019-05-20T07:08:18.725Z,75.76
2019-05-20T07:10:52.739Z,74.29
2019-05-20T07:13:26.856Z,74.43
2019-05-20T07:16:00.727Z,75.57
2019-05-20T07:18:34.720Z,74.43
2019-05-20T07:21:08.653Z,74.64
2019-05-20T07:23:42.566Z,75.23
2019-05-20T07:26:16.710Z,75.53
2019-05-20T07:28:50.770Z,75.12
2019-05-20T07:31:24.822Z,75.46
2019-05-20T07:33:59.127Z,74.52
2019-05-20T07:36:32.961Z,73.51
2019-05-20T07:39:07.885Z,72.75
2019-05-20T07:41:42.077Z,73.91
2019-05-20T07:44:16.033Z,73.98
2019-05-20T07:46:50.409Z,73.91
2019-05-20T07:49:24.876Z,74.04
2019-05-20T07:51:59.246Z,73.67
2019-05-20T07:54:33.546Z,73.43
2019-05-20T07:57:09.975Z,72.99
2019-05-20T07:59:45.915Z,73.12
2019-05-20T08:02:20.212Z,72.52
2019-05-20T08:04:54.173Z,72.40
2019-05-20T08:07:49.949Z,71.64
2019-05-20T08:10:04.320Z,72.02
2019-05-20T08:12:38.370Z,70.95
2019-05-20T08:15:12.470Z,71.57
2019-05-20T08:17:46.694Z,70.94
2019-05-20T08:20:20.839Z,67.60
2019-05-20T08:22:54.800Z,68.73
2019-05-20T08:25:28.771Z,69.85
2019-05-20T08:28:02.635Z,68.04
2019-05-20T08:30:38.335Z,69.36
2019-05-20T08:33:12.183Z,68.03
2019-05-20T08:35:46.146Z,67.90
2019-05-20T08:38:20.092Z,68.18
2019-05-20T08:40:53.936Z,67.17
2019-05-20T08:43:27.942Z,67.17
2019-05-20T08:46:01.950Z,66.24
2019-05-20T08:48:35.779Z,66.38
2019-05-20T08:51:09.785Z,65.68
2019-05-20T08:53:43.632Z,65.88
2019-05-20T08:56:17.616Z,64.79
2019-05-20T08:58:51.555Z,64.10
2019-05-20T09:01:25.495Z,64.94
2019-05-20T09:04:00.530Z,64.00
2019-05-20T09:06:34.415Z,64.39
2019-05-20T09:09:11.956Z,63.49
2019-05-20T09:11:47.722Z,64.09
2019-05-20T09:14:19.982Z,63.46
2019-05-20T09:16:53.858Z,62.29
2019-05-20T09:19:27.702Z,62.50
2019-05-20T09:22:01.556Z,62.45
2019-05-20T09:24:35.438Z,61.54
2019-05-20T09:27:09.464Z,60.39
2019-05-20T09:29:43.469Z,60.60
2019-05-20T09:32:17.752Z,61.08
2019-05-20T09:34:51.913Z,58.78
2019-05-20T09:37:26.177Z,60.27
2019-05-20T09:40:00.209Z,59.42
2019-05-20T09:42:34.081Z,58.95
2019-05-20T09:45:09.032Z,58.83
2019-05-20T09:47:42.917Z,58.36
2019-05-20T09:50:16.766Z,58.15
2019-05-20T09:52:50.761Z,56.83
2019-05-20T09:55:24.789Z,56.57
2019-05-20T09:57:58.768Z,55.74
2019-05-20T10:00:32.804Z,55.74
2019-05-20T10:03:07.638Z,56.31
2019-05-20T10:05:41.909Z,54.62
2019-05-20T10:08:15.860Z,55.54
2019-05-20T10:10:49.999Z,55.70
2019-05-20T10:13:23.943Z,55.05
2019-05-20T10:15:58.151Z,54.13
2019-05-20T10:18:37.213Z,54.49
2019-05-20T10:21:07.644Z,53.30
2019-05-20T10:23:41.607Z,53.81
2019-05-20T10:26:15.881Z,52.62
2019-05-20T10:28:50.008Z,51.50
2019-05-20T10:31:23.873Z,52.66
2019-05-20T10:33:57.701Z,51.76
2019-05-20T10:36:31.533Z,52.13
2019-05-20T10:39:08.411Z,52.50
2019-05-20T10:41:42.762Z,50.18
2019-05-20T10:44:16.681Z,51.62
2019-05-20T10:46:50.458Z,51.62
2019-05-20T10:49:24.390Z,51.54
2019-05-20T10:51:58.298Z,51.79
2019-05-20T10:54:32.154Z,51.56
2019-05-20T10:57:06.148Z,52.51
2019-05-20T10:59:39.928Z,52.51
2019-05-20T11:02:13.227Z,51.81
2019-05-20T11:04:47.150Z,51.94
2019-05-20T11:07:21.090Z,51.70
2019-05-20T11:09:55.016Z,51.98
2019-05-20T11:12:29.020Z,52.09
2019-05-20T11:15:03.214Z,52.44
2019-05-20T11:17:39.017Z,52.64
2019-05-20T11:20:13.225Z,52.40
2019-05-20T11:22:47.125Z,53.09
2019-05-20T11:25:20.204Z,52.63
2019-05-20T11:27:54.088Z,52.78
2019-05-20T11:30:27.384Z,53.28
2019-05-20T11:33:01.472Z,52.87
2019-05-20T11:35:35.514Z,53.26
2019-05-20T11:38:09.451Z,53.28
2019-05-20T11:40:42.730Z,53.38
2019-05-20T11:43:16.785Z,53.18
2019-05-20T11:45:51.176Z,53.48
2019-05-20T11:48:25.335Z,54.06
2019-05-20T11:50:58.380Z,53.90
2019-05-20T11:53:32.440Z,53.54
2019-05-20T11:56:06.300Z,53.54
2019-05-20T11:58:39.403Z,53.79
2019-05-20T12:01:13.211Z,53.99
2019-05-20T12:03:46.540Z,53.98
2019-05-20T12:06:20.354Z,54.70
2019-05-20T12:08:54.489Z,54.69
2019-05-20T12:11:28.618Z,54.80
2019-05-20T12:14:02.656Z,54.32
2019-05-20T12:16:36.568Z,54.51
2019-05-20T12:19:09.723Z,54.78
2019-05-20T12:21:43.861Z,54.52
2019-05-20T12:24:18.077Z,54.54
2019-05-20T12:26:52.022Z,54.63
2019-05-20T12:29:25.292Z,54.61
2019-05-20T12:32:03.322Z,54.80
2019-05-20T12:34:35.353Z,54.75
2019-05-20T12:37:09.586Z,54.66
2019-05-20T12:39:43.670Z,55.34
2019-05-20T12:42:17.890Z,55.13
2019-05-20T12:44:51.753Z,55.40
2019-05-20T12:47:24.815Z,55.48
2019-05-20T12:49:58.904Z,55.37
2019-05-20T12:52:32.858Z,55.82
2019-05-20T12:55:09.141Z,55.96
2019-05-20T12:57:42.633Z,55.87
2019-05-20T13:00:17.569Z,55.89
2019-05-20T13:02:51.494Z,55.91
2019-05-20T13:05:25.427Z,55.86
2019-05-20T13:07:58.460Z,56.29
2019-05-20T13:10:35.767Z,55.87
2019-05-20T13:13:09.692Z,56.07
2019-05-20T13:15:42.968Z,56.32
2019-05-20T13:18:16.986Z,56.00
2019-05-20T13:20:50.828Z,56.10
2019-05-20T13:23:24.689Z,56.34
2019-05-20T13:25:58.744Z,56.31
2019-05-20T13:28:32.705Z,56.46
2019-05-20T13:31:08.921Z,56.73
2019-05-20T13:33:42.814Z,56.63
2019-05-20T13:36:15.879Z,56.79
2019-05-20T13:38:49.784Z,56.91
2019-05-20T13:41:22.993Z,56.68
2019-05-20T13:43:57.029Z,56.60
2019-05-20T13:46:30.147Z,56.77
2019-05-20T13:49:04.102Z,57.18
2019-05-20T13:51:38.739Z,57.04
2019-05-20T13:54:14.074Z,57.02
2019-05-20T13:56:48.231Z,56.96
2019-05-20T13:59:22.603Z,57.31
2019-05-20T14:05:19.747Z,57.21
2019-05-20T14:07:54.809Z,57.47
2019-05-20T14:10:30.443Z,57.23
2019-05-20T14:13:05.761Z,57.36
2019-05-20T14:15:41.042Z,57.15
2019-05-20T14:18:15.015Z,57.15
2019-05-20T14:20:48.302Z,57.27
2019-05-20T14:23:23.389Z,57.33
2019-05-20T14:25:59.068Z,57.45
2019-05-20T14:28:34.060Z,57.41
2019-05-20T14:31:08.465Z,57.51
2019-05-20T14:33:42.737Z,57.39
2019-05-20T14:36:37.795Z,57.67
2019-05-20T14:38:52.679Z,57.36
2019-05-20T14:41:27.018Z,57.43
2019-05-20T14:44:00.993Z,57.86
2019-05-20T14:46:34.221Z,57.58
2019-05-20T14:49:07.992Z,57.62
2019-05-20T14:51:41.874Z,57.94
2019-05-20T14:54:16.477Z,57.85
2019-05-20T14:56:50.254Z,57.90
2019-05-20T14:59:24.374Z,57.81
2019-05-20T15:01:58.369Z,57.88
2019-05-20T15:04:32.367Z,58.34
2019-05-20T15:07:06.261Z,58.19
2019-05-20T15:09:39.456Z,58.22
2019-05-20T15:12:14.126Z,58.48
2019-05-20T15:14:48.210Z,58.53
2019-05-20T15:17:21.486Z,58.53
2019-05-20T15:19:55.572Z,58.36
2019-05-20T15:22:29.648Z,58.46
2019-05-20T15:25:03.975Z,58.53
2019-05-20T15:27:37.782Z,58.73
2019-05-20T15:30:12.063Z,58.59
2019-05-20T15:32:45.963Z,58.97
2019-05-20T15:35:20.354Z,59.03
2019-05-20T15:37:54.294Z,58.98
2019-05-20T15:40:29.332Z,59.27
2019-05-20T15:43:03.481Z,59.19
2019-05-20T15:45:37.443Z,59.26
2019-05-20T15:48:10.497Z,59.41
2019-05-20T15:50:44.939Z,59.70
2019-05-20T15:53:24.594Z,59.80
2019-05-20T15:56:02.728Z,59.91
2019-05-20T15:58:39.718Z,60.08
2019-05-20T16:01:15.168Z,61.04
2019-05-20T16:03:51.451Z,61.99
2019-05-20T16:06:24.873Z,60.85
2019-05-20T16:08:58.119Z,59.96
2019-05-20T16:11:32.331Z,59.73
2019-05-20T16:14:06.364Z,60.11
2019-05-20T16:16:39.716Z,59.40
2019-05-20T16:19:13.710Z,59.47
2019-05-20T16:21:47.861Z,59.28
2019-05-20T16:24:22.156Z,59.29
2019-05-20T16:26:56.134Z,59.32
2019-05-20T16:29:29.182Z,59.45
2019-05-20T16:32:03.345Z,59.43
2019-05-20T16:34:37.278Z,59.51
2019-05-20T16:37:11.444Z,59.80
2019-05-20T16:39:45.308Z,60.04
2019-05-20T16:42:19.179Z,60.27
2019-05-20T16:44:53.078Z,60.46
2019-05-20T16:47:27.216Z,60.73
2019-05-20T16:50:01.058Z,60.81
2019-05-20T16:52:35.166Z,60.79
2019-05-20T16:55:10.011Z,61.02
2019-05-20T16:57:44.028Z,60.96
2019-05-20T17:00:30.604Z,60.55
2019-05-20T17:02:53.048Z,60.27
2019-05-20T17:05:27.311Z,60.30
2019-05-20T17:08:01.886Z,60.51
2019-05-20T17:10:35.986Z,60.54
2019-05-20T17:13:09.809Z,60.12
2019-05-20T17:15:43.636Z,60.27
2019-05-20T17:18:18.013Z,60.51
2019-05-20T17:20:51.948Z,60.78
2019-05-20T17:23:26.031Z,61.04
2019-05-20T17:26:00.168Z,61.18
2019-05-20T17:28:34.024Z,61.53
2019-05-20T17:31:08.025Z,61.66
2019-05-20T17:33:41.209Z,62.27
2019-05-20T17:36:15.136Z,62.34
2019-05-20T17:38:49.577Z,62.75
2019-05-20T17:41:23.666Z,62.62
2019-05-20T17:43:56.799Z,62.73
2019-05-20T17:46:30.775Z,63.30
2019-05-20T17:49:03.946Z,63.34
2019-05-20T17:51:38.320Z,63.27
2019-05-20T17:54:13.798Z,63.30
2019-05-20T17:56:47.820Z,63.27
2019-05-20T17:59:22.157Z,63.54
2019-05-20T18:01:56.074Z,63.82
2019-05-20T18:04:29.984Z,63.81
2019-05-20T18:07:03.992Z,63.90
2019-05-20T18:09:38.728Z,64.08
2019-05-20T18:12:12.643Z,64.32
2019-05-20T18:14:48.355Z,64.22
2019-05-20T18:17:22.419Z,64.29
2019-05-20T18:19:55.485Z,64.26
2019-05-20T18:22:29.542Z,64.43
2019-05-20T18:25:03.969Z,64.30
2019-05-20T18:27:38.641Z,64.60
2019-05-20T18:30:13.511Z,64.50
2019-05-20T18:32:47.576Z,64.67
2019-05-20T18:35:20.847Z,64.64
2019-05-20T18:37:59.667Z,64.86
2019-05-20T18:40:40.172Z,64.95
2019-05-20T18:43:14.911Z,64.94
2019-05-20T18:45:48.810Z,65.15
2019-05-20T18:48:22.832Z,65.09
2019-05-20T18:50:55.974Z,65.21
2019-05-20T18:53:29.846Z,65.17
2019-05-20T18:56:03.981Z,65.23
2019-05-20T18:58:37.122Z,65.28
2019-05-20T19:01:11.310Z,65.29
2019-05-20T19:03:45.405Z,65.39
2019-05-20T19:06:18.511Z,65.50
2019-05-20T19:08:52.828Z,65.62
2019-05-20T19:11:26.912Z,65.62
2019-05-20T19:14:00.216Z,65.63
2019-05-20T19:16:34.449Z,65.73
2019-05-20T19:19:08.578Z,65.80
2019-05-20T19:21:42.567Z,65.87
2019-05-20T19:24:16.694Z,65.90
2019-05-20T19:26:49.710Z,66.06
2019-05-20T19:29:23.705Z,66.32
2019-05-20T19:32:01.783Z,66.56
2019-05-20T19:34:31.778Z,67.46
2019-05-20T19:37:05.742Z,67.46
2019-05-20T19:39:39.584Z,66.75
2019-05-20T19:42:13.580Z,68.72
2019-05-20T19:44:47.408Z,70.40
2019-05-20T19:47:21.459Z,71.22
2019-05-20T19:49:54.711Z,71.50
2019-05-20T19:52:28.547Z,74.39
2019-05-20T19:55:02.477Z,72.19
2019-05-20T19:57:36.398Z,73.19
2019-05-20T20:00:10.774Z,74.86
2019-05-20T20:02:44.598Z,74.44
2019-05-20T20:05:18.730Z,74.28
2019-05-20T20:07:51.781Z,75.03
2019-05-20T20:10:25.703Z,74.98
2019-05-20T20:13:00.320Z,74.02
2019-05-20T20:15:34.283Z,73.38
2019-05-20T20:18:08.226Z,73.54
2019-05-20T20:20:42.300Z,73.54
2019-05-20T20:23:16.293Z,73.73
2019-05-20T20:25:50.297Z,73.66
2019-05-20T20:28:25.818Z,74.47
2019-05-20T20:30:59.334Z,74.82
2019-05-20T20:33:33.491Z,73.81
2019-05-20T20:36:06.739Z,74.36
2019-05-20T20:38:40.656Z,75.59
2019-05-20T20:41:14.575Z,73.20
2019-05-20T20:43:48.429Z,72.62
2019-05-20T20:46:22.506Z,72.49
2019-05-20T20:48:56.538Z,72.42
2019-05-20T20:51:30.487Z,72.37
2019-05-20T20:54:04.593Z,72.42
2019-05-20T20:56:37.576Z,72.37
2019-05-20T20:59:11.686Z,73.01
2019-05-20T21:01:45.666Z,72.63
2019-05-20T21:04:19.638Z,72.60
2019-05-20T21:06:53.474Z,72.64
2019-05-20T21:09:27.508Z,72.67
2019-05-20T21:12:00.736Z,72.70
2019-05-20T21:14:34.724Z,72.71
2019-05-20T21:17:08.673Z,72.72
2019-05-20T21:19:42.878Z,72.67
2019-05-20T21:22:16.907Z,72.72
2019-05-20T21:24:50.008Z,72.81
2019-05-20T21:27:23.808Z,72.92
2019-05-20T21:29:57.899Z,72.92
2019-05-20T21:32:31.019Z,72.94
2019-05-20T21:35:05.457Z,72.97
2019-05-20T21:37:39.561Z,73.05
2019-05-20T21:40:13.621Z,73.12
2019-05-20T21:42:46.806Z,73.12
2019-05-20T21:45:20.657Z,73.19
2019-05-20T21:47:54.593Z,73.20
2019-05-20T21:50:28.583Z,73.20
2019-05-20T21:53:01.986Z,73.22
2019-05-20T21:55:36.014Z,73.28
2019-05-20T21:58:09.977Z,73.29
2019-05-20T22:00:51.318Z,73.32
2019-05-20T22:03:25.572Z,73.34
2019-05-20T22:05:59.744Z,73.37
2019-05-20T22:08:32.823Z,73.43
2019-05-20T22:11:06.839Z,73.49
2019-05-20T22:13:40.786Z,73.44
2019-05-20T22:16:15.059Z,73.47
2019-05-20T22:18:49.195Z,73.57
2019-05-20T22:21:30.769Z,73.66
2019-05-20T22:24:08.925Z,73.76
2019-05-20T22:26:43.176Z,73.73
2019-05-20T22:29:17.649Z,73.79
2019-05-20T22:31:51.589Z,73.83
2019-05-20T22:34:25.542Z,73.78
2019-05-20T22:36:59.793Z,73.78
2019-05-20T22:39:34.036Z,73.96
2019-05-20T22:42:08.121Z,74.03
2019-05-20T22:44:41.506Z,74.07
2019-05-20T22:47:15.351Z,74.16
2019-05-20T22:49:49.198Z,74.06
2019-05-20T22:52:23.127Z,74.41
2019-05-20T22:54:57.046Z,74.69
2019-05-20T22:57:30.879Z,74.76
2019-05-20T23:00:06.291Z,74.77
2019-05-20T23:02:40.118Z,74.96
2019-05-20T23:05:14.308Z,74.82
2019-05-20T23:07:48.598Z,74.77
2019-05-20T23:10:22.879Z,74.76
2019-05-20T23:12:57.133Z,75.18
2019-05-20T23:15:31.039Z,75.54
2019-05-20T23:18:05.176Z,75.66
2019-05-20T23:20:39.153Z,75.52
2019-05-20T23:23:13.038Z,75.37
2019-05-20T23:25:47.123Z,75.28
2019-05-20T23:28:20.193Z,75.21
2019-05-20T23:30:54.451Z,75.30
2019-05-20T23:33:28.306Z,75.50
2019-05-20T23:36:02.167Z,75.50
2019-05-20T23:38:36.006Z,75.57
2019-05-20T23:41:09.809Z,75.62
2019-05-20T23:43:43.685Z,75.76
2019-05-20T23:46:17.675Z,75.79
2019-05-20T23:48:51.641Z,75.59
2019-05-20T23:51:24.728Z,75.54
2019-05-20T23:53:58.559Z,75.58
2019-05-20T23:56:32.438Z,75.62
2019-05-20T23:59:06.436Z,75.61
